createdAt,value
2023-05-05T00:01:37.739Z,12.14
2023-05-05T00:04:05.372Z,12.06
2023-05-05T00:06:32.607Z,11.98
2023-05-05T00:08:59.793Z,11.81
2023-05-05T00:11:26.962Z,11.45
2023-05-05T00:14:01.322Z,11.60
2023-05-05T00:16:28.824Z,11.85
2023-05-05T00:18:56.489Z,11.68
2023-05-05T00:21:23.637Z,11.59
2023-05-05T00:23:52.097Z,11.64
2023-05-05T00:26:22.101Z,11.50
2023-05-05T00:28:58.745Z,11.66
2023-05-05T00:31:26.925Z,11.47
2023-05-05T00:33:55.116Z,11.28
2023-05-05T00:36:22.821Z,11.46
2023-05-05T00:38:50.468Z,11.49
2023-05-05T00:41:17.773Z,11.52
2023-05-05T00:43:45.237Z,11.51
2023-05-05T00:46:30.585Z,11.63
2023-05-05T00:49:06.897Z,11.55
2023-05-05T00:51:34.318Z,11.34
2023-05-05T00:54:02.435Z,11.43
2023-05-05T00:56:36.792Z,11.26
2023-05-05T00:59:07.227Z,11.43
2023-05-05T01:01:34.893Z,11.34
2023-05-05T01:04:02.243Z,11.40
2023-05-05T01:07:01.398Z,11.53
2023-05-05T01:10:18.055Z,11.27
2023-05-05T01:13:15.046Z,11.03
2023-05-05T01:16:13.146Z,10.95
2023-05-05T01:18:53.970Z,11.30
2023-05-05T01:21:37.417Z,11.38
2023-05-05T01:25:29.235Z,11.53
2023-05-05T01:28:20.086Z,11.38
2023-05-05T01:31:23.497Z,11.26
2023-05-05T01:34:01.623Z,11.43
2023-05-05T01:36:44.364Z,11.08
2023-05-05T01:39:16.654Z,11.24
2023-05-05T01:41:51.180Z,11.01
2023-05-05T01:44:19.973Z,11.34
2023-05-05T01:46:50.954Z,11.21
2023-05-05T01:49:18.181Z,11.34
2023-05-05T01:51:48.884Z,11.24
2023-05-05T01:54:16.935Z,11.21
2023-05-05T01:56:46.190Z,11.30
2023-05-05T01:59:14.397Z,11.40
2023-05-05T02:01:44.665Z,11.45
2023-05-05T02:04:14.960Z,11.52
2023-05-05T02:06:45.685Z,11.18
2023-05-05T02:09:14.330Z,11.31
2023-05-05T02:11:42.241Z,11.29
2023-05-05T02:14:10.940Z,11.28
2023-05-05T02:16:41.134Z,11.16
2023-05-05T02:19:10.272Z,10.92
2023-05-05T02:21:37.641Z,10.95
2023-05-05T02:24:05.733Z,10.38
2023-05-05T02:26:40.562Z,10.44
2023-05-05T02:29:27.952Z,10.54
2023-05-05T02:32:04.982Z,10.63
2023-05-05T02:34:39.749Z,10.64
2023-05-05T02:37:15.672Z,10.62
2023-05-05T02:39:58.547Z,10.94
2023-05-05T02:42:41.507Z,10.57
2023-05-05T02:45:18.468Z,10.83
2023-05-05T02:47:45.776Z,10.88
2023-05-05T02:50:13.117Z,10.66
2023-05-05T02:52:40.513Z,10.60
2023-05-05T02:55:08.773Z,10.30
2023-05-05T02:57:50.834Z,10.47
2023-05-05T03:00:38.168Z,10.34
2023-05-05T03:03:24.397Z,10.25
2023-05-05T03:06:05.079Z,10.59
2023-05-05T03:09:09.076Z,10.57
2023-05-05T03:11:46.393Z,10.46
2023-05-05T03:14:18.540Z,10.52
2023-05-05T03:16:48.188Z,10.45
2023-05-05T03:19:19.907Z,10.43
2023-05-05T03:21:48.532Z,10.53
2023-05-05T03:24:22.196Z,10.50
2023-05-05T03:26:53.451Z,10.30
2023-05-05T03:29:20.899Z,10.04
2023-05-05T03:31:53.264Z,10.03
2023-05-05T03:34:20.496Z,10.20
2023-05-05T03:36:47.821Z,9.99
2023-05-05T03:39:15.021Z,10.38
2023-05-05T03:41:45.185Z,10.30
2023-05-05T03:44:15.332Z,10.27
2023-05-05T03:46:42.561Z,10.20
2023-05-05T03:49:09.825Z,10.20
2023-05-05T03:51:37.466Z,10.32
2023-05-05T03:54:07.825Z,10.32
2023-05-05T03:56:34.932Z,10.30
2023-05-05T03:59:02.013Z,10.19
2023-05-05T04:01:31.420Z,9.94
2023-05-05T04:03:58.761Z,9.86
2023-05-05T04:06:26.513Z,9.91
2023-05-05T04:09:03.266Z,9.82
2023-05-05T04:11:36.251Z,9.71
2023-05-05T04:14:03.586Z,9.82
2023-05-05T04:16:31.097Z,9.78
2023-05-05T04:18:58.602Z,9.98
2023-05-05T04:21:28.197Z,9.78
2023-05-05T04:23:58.446Z,9.87
2023-05-05T04:26:27.181Z,9.94
2023-05-05T04:28:55.709Z,10.01
2023-05-05T04:31:22.992Z,9.86
2023-05-05T04:33:50.641Z,10.16
2023-05-05T04:36:23.297Z,10.43
2023-05-05T04:38:50.542Z,10.20
2023-05-05T04:41:17.791Z,10.66
2023-05-05T04:43:44.920Z,10.70
2023-05-05T04:46:11.947Z,11.02
2023-05-05T04:48:39.189Z,11.50
2023-05-05T04:51:07.175Z,11.00
2023-05-05T04:53:34.521Z,11.26
2023-05-05T04:56:02.610Z,11.15
2023-05-05T04:58:29.755Z,10.98
2023-05-05T05:00:57.054Z,11.27
2023-05-05T05:03:25.114Z,11.14
2023-05-05T05:05:52.241Z,11.46
2023-05-05T05:08:19.472Z,11.64
2023-05-05T05:10:46.624Z,11.44
2023-05-05T05:13:13.861Z,11.80
2023-05-05T05:15:41.976Z,12.15
2023-05-05T05:18:11.481Z,11.86
2023-05-05T05:20:38.621Z,12.04
2023-05-05T05:23:05.882Z,11.92
2023-05-05T05:25:33.074Z,11.65
2023-05-05T05:28:09.413Z,11.86
2023-05-05T05:30:38.358Z,12.82
2023-05-05T05:33:06.036Z,12.17
2023-05-05T05:35:33.140Z,13.03
2023-05-05T05:38:00.688Z,12.48
2023-05-05T05:40:27.736Z,12.82
2023-05-05T05:42:54.954Z,12.61
2023-05-05T05:45:22.174Z,13.08
2023-05-05T05:47:49.654Z,13.04
2023-05-05T05:50:16.900Z,13.50
2023-05-05T05:52:47.018Z,13.20
2023-05-05T05:55:14.708Z,13.37
2023-05-05T05:57:42.433Z,13.60
2023-05-05T06:00:10.532Z,13.34
2023-05-05T06:02:37.893Z,13.48
2023-05-05T06:05:05.860Z,13.34
2023-05-05T06:07:32.950Z,14.02
2023-05-05T06:10:07.729Z,13.79
2023-05-05T06:12:42.066Z,13.19
2023-05-05T06:15:10.287Z,13.58
2023-05-05T06:17:37.586Z,13.91
2023-05-05T06:20:06.665Z,13.66
2023-05-05T06:22:34.172Z,13.55
2023-05-05T06:25:01.371Z,13.40
2023-05-05T06:27:28.785Z,13.48
2023-05-05T06:30:02.205Z,13.66
2023-05-05T06:32:29.890Z,14.67
2023-05-05T06:34:57.103Z,13.93
2023-05-05T06:37:27.426Z,14.42
2023-05-05T06:39:54.485Z,14.68
2023-05-05T06:42:24.374Z,14.18
2023-05-05T06:44:55.649Z,15.29
2023-05-05T06:47:23.136Z,15.14
2023-05-05T06:49:50.229Z,15.94
2023-05-05T06:52:22.807Z,15.41
2023-05-05T06:54:49.914Z,14.67
2023-05-05T06:57:17.060Z,14.63
2023-05-05T06:59:54.064Z,15.63
2023-05-05T07:02:21.128Z,15.00
2023-05-05T07:04:48.305Z,14.52
2023-05-05T07:07:15.652Z,14.30
2023-05-05T07:09:42.937Z,14.74
2023-05-05T07:12:10.136Z,14.26
2023-05-05T07:14:37.262Z,14.40
2023-05-05T07:17:06.718Z,14.73
2023-05-05T07:19:33.809Z,15.09
2023-05-05T07:22:00.907Z,15.12
2023-05-05T07:24:28.254Z,15.45
2023-05-05T07:26:55.608Z,15.22
2023-05-05T07:29:24.756Z,14.98
2023-05-05T07:31:52.105Z,15.44
2023-05-05T07:34:19.484Z,15.47
2023-05-05T07:36:46.635Z,15.02
2023-05-05T07:39:15.187Z,15.92
2023-05-05T07:41:45.555Z,15.62
2023-05-05T07:44:12.661Z,16.15
2023-05-05T07:46:42.857Z,16.56
2023-05-05T07:49:17.786Z,16.59
2023-05-05T07:51:45.081Z,16.22
2023-05-05T07:54:12.624Z,16.27
2023-05-05T07:56:41.319Z,16.08
2023-05-05T07:59:11.890Z,16.79
2023-05-05T08:01:39.909Z,16.83
2023-05-05T08:04:07.705Z,17.21
2023-05-05T08:06:35.214Z,17.57
2023-05-05T08:09:14.009Z,17.79
2023-05-05T08:11:41.161Z,17.08
2023-05-05T08:14:08.619Z,18.19
2023-05-05T08:16:38.700Z,17.85
2023-05-05T08:19:14.595Z,17.39
2023-05-05T08:21:48.817Z,18.54
2023-05-05T08:24:17.332Z,17.96
2023-05-05T08:26:44.492Z,17.57
2023-05-05T08:29:11.696Z,18.85
2023-05-05T08:31:38.938Z,17.78
2023-05-05T08:34:06.690Z,17.82
2023-05-05T08:36:34.018Z,17.84
2023-05-05T08:39:01.615Z,18.08
2023-05-05T08:41:28.940Z,18.16
2023-05-05T08:43:56.235Z,18.56
2023-05-05T08:46:26.594Z,19.23
2023-05-05T08:48:56.219Z,19.19
2023-05-05T08:51:38.133Z,19.81
2023-05-05T08:54:20.019Z,18.26
2023-05-05T08:56:50.747Z,18.82
2023-05-05T08:59:18.846Z,19.47
2023-05-05T09:01:46.105Z,19.49
2023-05-05T09:04:13.556Z,20.31
2023-05-05T09:06:41.246Z,20.91
2023-05-05T09:09:09.456Z,20.50
2023-05-05T09:11:37.859Z,20.52
2023-05-05T09:14:04.945Z,20.36
2023-05-05T09:16:32.252Z,19.93
2023-05-05T09:19:06.611Z,20.43
2023-05-05T09:21:33.939Z,19.33
2023-05-05T09:24:15.602Z,19.67
2023-05-05T09:26:48.077Z,19.65
2023-05-05T09:29:24.759Z,20.17
2023-05-05T09:32:08.735Z,19.47
2023-05-05T09:34:37.290Z,20.16
2023-05-05T09:37:06.356Z,20.74
2023-05-05T09:39:33.674Z,20.27
2023-05-05T09:42:02.941Z,20.39
2023-05-05T09:44:36.924Z,20.53
2023-05-05T09:47:09.447Z,20.06
2023-05-05T09:49:42.145Z,19.94
2023-05-05T09:52:17.178Z,20.96
2023-05-05T09:54:58.144Z,20.51
2023-05-05T09:57:33.049Z,20.90
2023-05-05T10:00:04.258Z,20.44
2023-05-05T10:02:38.231Z,21.08
2023-05-05T10:05:18.671Z,20.85
2023-05-05T10:07:47.999Z,21.50
2023-05-05T10:10:18.474Z,21.62
2023-05-05T10:12:54.445Z,22.41
2023-05-05T10:15:25.577Z,21.14
2023-05-05T10:18:06.142Z,23.18
2023-05-05T10:20:38.027Z,22.97
2023-05-05T10:23:10.345Z,21.15
2023-05-05T10:25:51.977Z,20.07
2023-05-05T10:28:33.594Z,20.47
2023-05-05T10:31:05.803Z,21.25
2023-05-05T10:33:55.401Z,22.02
2023-05-05T10:36:25.372Z,22.14
2023-05-05T10:38:59.688Z,23.09
2023-05-05T10:41:27.220Z,22.87
2023-05-05T10:44:03.608Z,22.57
2023-05-05T10:46:31.678Z,22.43
2023-05-05T10:49:31.608Z,22.53
2023-05-05T10:52:27.883Z,22.56
2023-05-05T10:55:43.907Z,22.49
2023-05-05T10:58:55.565Z,22.24
2023-05-05T11:01:32.853Z,22.50
2023-05-05T11:04:22.185Z,22.54
2023-05-05T11:07:14.798Z,22.31
2023-05-05T11:10:01.211Z,22.20
2023-05-05T11:12:30.544Z,22.61
2023-05-05T11:15:29.215Z,22.67
2023-05-05T11:18:07.517Z,22.86
2023-05-05T11:20:41.976Z,24.12
2023-05-05T11:23:29.804Z,23.25
2023-05-05T11:26:00.912Z,23.03
2023-05-05T11:28:31.514Z,23.16
2023-05-05T11:30:59.043Z,24.12
2023-05-05T11:33:48.197Z,24.38
2023-05-05T11:36:18.072Z,23.39
2023-05-05T11:39:23.480Z,23.58
2023-05-05T11:42:23.607Z,23.61
2023-05-05T11:44:51.496Z,23.50
2023-05-05T11:47:18.402Z,23.50
2023-05-05T11:49:45.658Z,22.03
2023-05-05T11:52:14.905Z,21.83
2023-05-05T11:54:50.606Z,21.58
2023-05-05T11:57:21.726Z,23.16
2023-05-05T12:00:03.036Z,23.04
2023-05-05T12:02:31.517Z,23.47
2023-05-05T12:05:03.631Z,24.15
2023-05-05T12:07:33.310Z,24.01
2023-05-05T12:10:01.126Z,24.08
2023-05-05T12:12:40.518Z,22.30
2023-05-05T12:15:09.721Z,23.60
2023-05-05T12:17:45.176Z,23.66
2023-05-05T12:20:13.306Z,23.72
2023-05-05T12:22:40.815Z,24.69
2023-05-05T12:25:09.119Z,23.98
2023-05-05T12:27:36.763Z,24.80
2023-05-05T12:30:18.532Z,23.69
2023-05-05T12:32:46.347Z,23.67
2023-05-05T12:35:14.320Z,22.69
2023-05-05T12:37:42.969Z,23.42
2023-05-05T12:40:47.298Z,23.74
2023-05-05T12:43:35.566Z,23.10
2023-05-05T12:46:11.071Z,23.39
2023-05-05T12:48:41.430Z,23.84
2023-05-05T12:51:23.123Z,24.30
2023-05-05T12:54:12.139Z,25.12
2023-05-05T12:56:45.461Z,23.40
2023-05-05T12:59:22.736Z,24.32
2023-05-05T13:01:54.888Z,25.40
2023-05-05T13:04:25.177Z,24.04
2023-05-05T13:07:14.260Z,24.81
2023-05-05T13:09:41.866Z,24.55
2023-05-05T13:12:11.919Z,23.89
2023-05-05T13:14:40.896Z,23.90
2023-05-05T13:17:08.633Z,24.15
2023-05-05T13:19:41.621Z,25.33
2023-05-05T13:22:10.117Z,23.34
2023-05-05T13:24:49.543Z,25.12
2023-05-05T13:27:20.100Z,24.31
2023-05-05T13:29:47.364Z,24.13
2023-05-05T13:32:14.442Z,23.89
2023-05-05T13:34:43.409Z,25.05
2023-05-05T13:37:10.641Z,24.81
2023-05-05T13:39:37.803Z,24.66
2023-05-05T13:42:05.036Z,24.47
2023-05-05T13:44:32.807Z,24.07
2023-05-05T13:47:00.449Z,24.74
2023-05-05T13:49:27.816Z,24.28
2023-05-05T13:51:56.476Z,25.12
2023-05-05T13:54:26.732Z,22.80
2023-05-05T13:56:54.332Z,24.90
2023-05-05T13:59:21.741Z,24.63
2023-05-05T14:01:49.136Z,24.47
2023-05-05T14:04:16.966Z,23.52
2023-05-05T14:06:44.085Z,24.99
2023-05-05T14:09:11.272Z,25.57
2023-05-05T14:11:38.367Z,25.12
2023-05-05T14:14:08.192Z,24.93
2023-05-05T14:16:35.364Z,24.75
2023-05-05T14:19:02.794Z,25.02
2023-05-05T14:21:31.632Z,24.45
2023-05-05T14:23:58.872Z,24.44
2023-05-05T14:26:26.297Z,24.09
2023-05-05T14:28:53.439Z,24.77
2023-05-05T14:31:20.662Z,24.45
2023-05-05T14:33:48.077Z,24.13
2023-05-05T14:36:15.353Z,24.82
2023-05-05T14:38:43.010Z,24.77
2023-05-05T14:41:10.950Z,24.70
2023-05-05T14:43:38.131Z,24.43
2023-05-05T14:46:07.146Z,24.20
2023-05-05T14:48:35.067Z,24.96
2023-05-05T14:51:02.299Z,24.13
2023-05-05T14:53:29.444Z,24.32
2023-05-05T14:55:56.536Z,24.00
2023-05-05T14:58:24.640Z,23.14
2023-05-05T15:00:54.898Z,23.86
2023-05-05T15:03:22.428Z,23.25
2023-05-05T15:05:51.192Z,24.13
2023-05-05T15:08:21.181Z,23.50
2023-05-05T15:10:48.624Z,23.67
2023-05-05T15:13:16.031Z,23.60
2023-05-05T15:15:43.756Z,22.68
2023-05-05T15:18:14.055Z,23.12
2023-05-05T15:20:41.096Z,22.80
2023-05-05T15:23:08.341Z,23.41
2023-05-05T15:25:35.644Z,23.06
2023-05-05T15:28:02.892Z,23.22
2023-05-05T15:30:30.157Z,22.09
2023-05-05T15:32:57.270Z,22.29
2023-05-05T15:35:27.628Z,23.44
2023-05-05T15:37:55.186Z,23.40
2023-05-05T15:40:23.545Z,23.06
2023-05-05T15:42:50.953Z,23.34
2023-05-05T15:45:18.330Z,23.40
2023-05-05T15:47:46.267Z,22.30
2023-05-05T15:50:14.071Z,22.91
2023-05-05T15:52:44.425Z,22.94
2023-05-05T15:55:11.943Z,22.68
2023-05-05T15:57:41.615Z,22.43
2023-05-05T16:00:10.318Z,21.77
2023-05-05T16:02:37.478Z,22.46
2023-05-05T16:05:14.418Z,21.94
2023-05-05T16:07:41.951Z,22.34
2023-05-05T16:10:10.140Z,21.91
2023-05-05T16:12:39.718Z,21.93
2023-05-05T16:15:11.326Z,22.25
2023-05-05T16:17:39.461Z,21.87
2023-05-05T16:20:07.664Z,21.98
2023-05-05T16:22:34.863Z,21.91
2023-05-05T16:25:02.719Z,21.61
2023-05-05T16:27:30.182Z,21.81
2023-05-05T16:29:59.544Z,21.45
2023-05-05T16:32:27.039Z,21.17
2023-05-05T16:34:57.781Z,21.56
2023-05-05T16:37:24.943Z,20.89
2023-05-05T16:39:52.126Z,21.55
2023-05-05T16:42:19.341Z,20.39
2023-05-05T16:44:46.614Z,21.06
2023-05-05T16:47:13.821Z,20.91
2023-05-05T16:49:40.861Z,20.53
2023-05-05T16:52:08.100Z,21.04
2023-05-05T16:54:35.189Z,20.68
2023-05-05T16:57:03.689Z,20.20
2023-05-05T16:59:31.717Z,20.64
2023-05-05T17:02:01.668Z,19.87
2023-05-05T17:04:29.070Z,20.44
2023-05-05T17:06:56.273Z,20.58
2023-05-05T17:09:27.260Z,20.51
2023-05-05T17:11:54.746Z,20.35
2023-05-05T17:14:22.003Z,20.15
2023-05-05T17:16:49.397Z,20.24
2023-05-05T17:19:16.547Z,19.38
2023-05-05T17:21:43.863Z,20.00
2023-05-05T17:24:11.366Z,19.62
2023-05-05T17:26:39.686Z,19.79
2023-05-05T17:29:06.856Z,19.37
2023-05-05T17:31:34.042Z,19.95
2023-05-05T17:34:01.235Z,19.30
2023-05-05T17:36:28.408Z,19.87
2023-05-05T17:38:55.960Z,19.39
2023-05-05T17:41:23.384Z,19.46
2023-05-05T17:43:50.546Z,19.44
2023-05-05T17:46:17.863Z,19.50
2023-05-05T17:48:45.266Z,19.44
2023-05-05T17:51:16.116Z,18.89
2023-05-05T17:53:43.848Z,19.30
2023-05-05T17:56:13.925Z,19.37
2023-05-05T17:58:41.336Z,19.09
2023-05-05T18:01:08.947Z,18.73
2023-05-05T18:03:37.295Z,18.93
2023-05-05T18:06:06.550Z,18.51
2023-05-05T18:08:33.812Z,18.98
2023-05-05T18:11:01.842Z,18.44
2023-05-05T18:13:29.191Z,18.74
2023-05-05T18:15:56.660Z,18.59
2023-05-05T18:18:29.491Z,18.39
2023-05-05T18:20:56.887Z,18.39
2023-05-05T18:23:24.148Z,18.26
2023-05-05T18:25:51.351Z,18.16
2023-05-05T18:28:18.415Z,18.13
2023-05-05T18:30:45.581Z,18.13
2023-05-05T18:33:12.769Z,18.48
2023-05-05T18:35:39.867Z,18.53
2023-05-05T18:38:07.042Z,17.98
2023-05-05T18:40:34.371Z,17.86
2023-05-05T18:43:06.552Z,18.16
2023-05-05T18:45:34.390Z,18.15
2023-05-05T18:48:02.214Z,17.84
2023-05-05T18:50:29.387Z,17.38
2023-05-05T18:52:57.023Z,17.87
2023-05-05T18:55:24.367Z,17.46
2023-05-05T18:57:51.464Z,17.54
2023-05-05T19:00:20.586Z,17.72
2023-05-05T19:02:47.702Z,17.37
2023-05-05T19:05:15.044Z,17.59
2023-05-05T19:07:42.269Z,17.78
2023-05-05T19:10:10.729Z,17.45
2023-05-05T19:12:37.813Z,17.30
2023-05-05T19:15:05.437Z,16.96
2023-05-05T19:17:35.673Z,17.24
2023-05-05T19:20:03.203Z,17.08
2023-05-05T19:22:30.698Z,16.90
2023-05-05T19:24:57.861Z,17.17
2023-05-05T19:27:25.233Z,16.81
2023-05-05T19:29:52.893Z,16.71
2023-05-05T19:32:22.407Z,17.06
2023-05-05T19:34:49.579Z,16.48
2023-05-05T19:37:16.969Z,16.68
2023-05-05T19:39:45.717Z,16.78
2023-05-05T19:42:12.941Z,16.42
2023-05-05T19:44:40.180Z,16.56
2023-05-05T19:47:07.935Z,16.94
2023-05-05T19:49:36.232Z,16.73
2023-05-05T19:52:04.020Z,16.79
2023-05-05T19:54:31.056Z,16.55
2023-05-05T19:56:58.475Z,16.05
2023-05-05T19:59:25.554Z,16.38
2023-05-05T20:01:52.823Z,16.74
2023-05-05T20:04:22.043Z,16.46
2023-05-05T20:06:49.223Z,16.63
2023-05-05T20:09:17.134Z,16.23
2023-05-05T20:11:44.262Z,16.51
2023-05-05T20:14:11.315Z,16.32
2023-05-05T20:16:39.195Z,16.10
2023-05-05T20:19:06.346Z,16.30
2023-05-05T20:21:37.359Z,16.19
2023-05-05T20:24:08.054Z,16.49
2023-05-05T20:26:35.218Z,16.10
2023-05-05T20:29:02.622Z,15.92
2023-05-05T20:31:30.879Z,15.94
2023-05-05T20:33:58.015Z,16.09
2023-05-05T20:36:26.570Z,15.80
2023-05-05T20:38:53.964Z,16.19
2023-05-05T20:41:24.040Z,15.83
2023-05-05T20:43:51.169Z,15.83
2023-05-05T20:46:18.276Z,15.91
2023-05-05T20:48:48.538Z,16.32
2023-05-05T20:51:17.950Z,15.83
2023-05-05T20:53:45.094Z,15.56
2023-05-05T20:56:12.201Z,15.96
2023-05-05T20:58:39.274Z,15.82
2023-05-05T21:01:09.482Z,15.87
2023-05-05T21:03:37.519Z,15.83
2023-05-05T21:06:05.044Z,15.44
2023-05-05T21:08:32.131Z,15.86
2023-05-05T21:10:59.205Z,15.32
2023-05-05T21:13:26.294Z,15.39
2023-05-05T21:15:53.371Z,15.38
2023-05-05T21:18:20.637Z,15.62
2023-05-05T21:20:47.697Z,15.70
2023-05-05T21:23:14.793Z,15.59
2023-05-05T21:25:41.860Z,15.49
2023-05-05T21:28:08.980Z,15.41
2023-05-05T21:30:36.109Z,15.46
2023-05-05T21:33:03.538Z,14.87
2023-05-05T21:35:30.620Z,15.70
2023-05-05T21:37:58.127Z,15.49
2023-05-05T21:40:25.470Z,15.15
2023-05-05T21:42:52.945Z,15.53
2023-05-05T21:45:20.475Z,15.41
2023-05-05T21:47:50.528Z,15.11
2023-05-05T21:50:20.863Z,15.47
2023-05-05T21:52:50.944Z,14.82
2023-05-05T21:55:18.161Z,15.20
2023-05-05T21:57:45.387Z,15.11
2023-05-05T22:00:16.950Z,14.99
2023-05-05T22:02:48.034Z,15.39
2023-05-05T22:05:15.299Z,15.43
2023-05-05T22:07:42.547Z,15.14
2023-05-05T22:10:10.225Z,14.85
2023-05-05T22:12:37.500Z,15.29
2023-05-05T22:15:05.640Z,14.92
2023-05-05T22:17:33.046Z,14.98
2023-05-05T22:20:04.989Z,15.20
2023-05-05T22:22:32.486Z,15.62
2023-05-05T22:24:59.585Z,15.55
2023-05-05T22:27:26.786Z,15.43
2023-05-05T22:29:53.828Z,15.37
2023-05-05T22:32:20.894Z,15.20
2023-05-05T22:34:48.364Z,15.44
2023-05-05T22:37:15.641Z,15.43
2023-05-05T22:39:54.175Z,15.46
2023-05-05T22:42:21.315Z,15.08
2023-05-05T22:44:48.391Z,15.29
2023-05-05T22:47:15.835Z,15.44
2023-05-05T22:49:43.152Z,15.89
2023-05-05T22:52:10.321Z,15.35
2023-05-05T22:54:37.379Z,15.31
2023-05-05T22:57:04.578Z,15.48
2023-05-05T22:59:31.741Z,14.76
2023-05-05T23:02:16.273Z,14.63
2023-05-05T23:04:45.137Z,14.48
2023-05-05T23:07:13.422Z,14.53
2023-05-05T23:09:40.927Z,14.97
2023-05-05T23:12:08.385Z,14.74
2023-05-05T23:14:37.340Z,14.86
2023-05-05T23:17:04.598Z,14.29
2023-05-05T23:19:32.718Z,14.70
2023-05-05T23:22:00.891Z,14.46
2023-05-05T23:24:34.506Z,14.70
2023-05-05T23:27:04.689Z,14.27
2023-05-05T23:29:31.954Z,14.75
2023-05-05T23:31:59.047Z,14.69
2023-05-05T23:34:26.939Z,14.77
2023-05-05T23:36:53.987Z,14.51
2023-05-05T23:39:21.096Z,14.70
2023-05-05T23:41:51.529Z,14.40
2023-05-05T23:44:18.570Z,14.31
2023-05-05T23:46:45.785Z,14.10
2023-05-05T23:49:12.800Z,13.94
2023-05-05T23:51:39.861Z,13.51
2023-05-05T23:54:07.383Z,13.92
2023-05-05T23:56:34.743Z,13.84
2023-05-05T23:59:01.840Z,13.48
